Terminal Aerodrome Forecast
Issued by NWS Wilmington, NC

Home | Current Version | Previous Version | Text Only | Print | Product List | Glossary On
Versions: 1 2 3 4 5 6 7 8 9 10 11 12 13 14 15 16 17 18 19 20 21 22
000
FTUS42 KILM 211100
TAFILM
TAF
KILM 211120Z 2112/2212 00000KT 1/2SM FG BKN002
      TEMPO 2112/2113 4SM BR BKN004
     FM211300 27004KT P6SM BKN250
     FM211800 22008KT P6SM VCTS FEW030CB BKN050
     FM212300 23003KT P6SM SCT120=

USA.gov is the U.S. government's official web portal to all federal, state and local government web resources and services.